createdAt,value
2023-05-23T00:01:38.503Z,16.36
2023-05-23T00:04:08.004Z,16.32
2023-05-23T00:06:39.326Z,16.34
2023-05-23T00:09:09.181Z,16.35
2023-05-23T00:11:38.378Z,16.35
2023-05-23T00:14:08.885Z,16.41
2023-05-23T00:16:41.729Z,16.47
2023-05-23T00:19:11.717Z,16.46
2023-05-23T00:21:42.214Z,16.43
2023-05-23T00:24:11.823Z,16.40
2023-05-23T00:26:41.402Z,16.44
2023-05-23T00:29:16.227Z,16.51
2023-05-23T00:31:49.737Z,16.49
2023-05-23T00:34:19.389Z,16.51
2023-05-23T00:36:50.774Z,16.54
2023-05-23T00:39:21.078Z,16.40
2023-05-23T00:41:52.935Z,16.30
2023-05-23T00:44:22.590Z,16.21
2023-05-23T00:46:56.065Z,16.19
2023-05-23T00:49:28.650Z,16.23
2023-05-23T00:51:57.767Z,16.21
2023-05-23T00:54:32.047Z,16.19
2023-05-23T00:57:01.447Z,16.17
2023-05-23T00:59:31.860Z,16.19
2023-05-23T01:02:01.627Z,16.15
2023-05-23T01:04:34.571Z,16.11
2023-05-23T01:07:03.695Z,15.98
2023-05-23T01:09:32.968Z,15.95
2023-05-23T01:12:26.886Z,15.95
2023-05-23T01:15:10.430Z,15.88
2023-05-23T01:17:53.920Z,15.78
2023-05-23T01:20:28.792Z,15.65
2023-05-23T01:23:04.395Z,15.50
2023-05-23T01:25:54.445Z,15.43
2023-05-23T01:28:26.736Z,15.39
2023-05-23T01:31:01.323Z,15.37
2023-05-23T01:33:32.622Z,15.32
2023-05-23T01:36:06.478Z,15.30
2023-05-23T01:38:35.995Z,15.27
2023-05-23T01:41:05.288Z,15.23
2023-05-23T01:43:35.388Z,15.17
2023-05-23T01:46:07.010Z,15.09
2023-05-23T01:48:37.697Z,15.06
2023-05-23T01:51:07.594Z,15.04
2023-05-23T01:53:38.293Z,15.01
2023-05-23T01:56:07.775Z,15.00
2023-05-23T01:58:36.890Z,15.03
2023-05-23T02:01:06.171Z,15.08
2023-05-23T02:03:35.665Z,15.08
2023-05-23T02:06:04.828Z,15.02
2023-05-23T02:08:33.935Z,15.00
2023-05-23T02:11:02.887Z,15.02
2023-05-23T02:13:31.962Z,15.04
2023-05-23T02:16:01.533Z,15.05
2023-05-23T02:18:31.020Z,15.07
2023-05-23T02:21:00.201Z,15.12
2023-05-23T02:23:29.632Z,15.19
2023-05-23T02:25:58.817Z,15.24
2023-05-23T02:28:27.795Z,15.18
2023-05-23T02:30:56.565Z,15.08
2023-05-23T02:33:26.209Z,15.01
2023-05-23T02:35:55.953Z,14.92
2023-05-23T02:38:27.357Z,14.83
2023-05-23T02:40:57.969Z,14.75
2023-05-23T02:43:27.461Z,14.69
2023-05-23T02:45:56.177Z,14.68
2023-05-23T02:48:25.663Z,14.68
2023-05-23T02:50:55.123Z,14.61
2023-05-23T02:53:24.425Z,14.59
2023-05-23T02:55:53.655Z,14.63
2023-05-23T02:58:22.709Z,14.68
2023-05-23T03:00:51.852Z,14.65
2023-05-23T03:03:21.887Z,14.62
2023-05-23T03:05:52.096Z,14.59
2023-05-23T03:08:21.034Z,14.64
2023-05-23T03:10:50.228Z,14.65
2023-05-23T03:13:19.625Z,14.63
2023-05-23T03:15:48.693Z,14.53
2023-05-23T03:18:18.111Z,14.54
2023-05-23T03:20:47.951Z,14.57
2023-05-23T03:23:17.303Z,14.48
2023-05-23T03:25:46.936Z,14.33
2023-05-23T03:28:16.205Z,14.27
2023-05-23T03:30:45.649Z,14.22
2023-05-23T03:33:14.957Z,14.20
2023-05-23T03:35:45.257Z,14.15
2023-05-23T03:38:14.582Z,14.16
2023-05-23T03:40:43.840Z,14.19
2023-05-23T03:43:13.326Z,14.24
2023-05-23T03:45:44.559Z,14.24
2023-05-23T03:48:14.097Z,14.17
2023-05-23T03:50:43.175Z,14.19
2023-05-23T03:53:12.515Z,14.26
2023-05-23T03:55:42.105Z,14.32
2023-05-23T03:58:11.416Z,14.30
2023-05-23T04:00:40.667Z,14.33
2023-05-23T04:03:11.090Z,14.39
2023-05-23T04:05:40.623Z,14.40
2023-05-23T04:08:10.165Z,14.40
2023-05-23T04:10:39.599Z,14.42
2023-05-23T04:13:10.215Z,14.49
2023-05-23T04:15:40.458Z,14.52
2023-05-23T04:18:10.256Z,14.54
2023-05-23T04:20:39.920Z,14.50
2023-05-23T04:23:09.117Z,14.51
2023-05-23T04:25:38.392Z,14.58
2023-05-23T04:28:08.590Z,14.54
2023-05-23T04:30:38.002Z,14.48
2023-05-23T04:33:07.904Z,14.57
2023-05-23T04:35:39.777Z,14.69
2023-05-23T04:38:09.421Z,14.78
2023-05-23T04:40:38.907Z,14.91
2023-05-23T04:43:10.697Z,15.10
2023-05-23T04:45:42.740Z,15.31
2023-05-23T04:48:13.824Z,15.45
2023-05-23T04:50:44.098Z,15.53
2023-05-23T04:53:13.152Z,15.56
2023-05-23T04:55:43.275Z,15.60
2023-05-23T04:58:13.600Z,15.63
2023-05-23T05:00:42.939Z,15.56
2023-05-23T05:03:12.785Z,15.54
2023-05-23T05:05:42.223Z,15.57
2023-05-23T05:08:12.005Z,15.64
2023-05-23T05:10:42.346Z,15.71
2023-05-23T05:13:11.607Z,15.74
2023-05-23T05:15:40.602Z,15.72
2023-05-23T05:18:10.143Z,15.76
2023-05-23T05:20:39.627Z,15.83
2023-05-23T05:23:10.615Z,15.93
2023-05-23T05:25:41.962Z,16.02
2023-05-23T05:28:11.463Z,16.10
2023-05-23T05:30:41.492Z,16.17
2023-05-23T05:33:10.767Z,16.23
2023-05-23T05:35:40.952Z,16.23
2023-05-23T05:38:11.788Z,16.39
2023-05-23T05:40:41.320Z,16.51
2023-05-23T05:43:11.213Z,16.68
2023-05-23T05:45:41.509Z,16.81
2023-05-23T05:48:10.605Z,16.82
2023-05-23T05:50:40.070Z,16.77
2023-05-23T05:53:10.045Z,16.87
2023-05-23T05:55:39.478Z,17.07
2023-05-23T05:58:09.478Z,17.26
2023-05-23T06:00:42.980Z,17.42
2023-05-23T06:03:14.749Z,17.53
2023-05-23T06:05:44.532Z,17.79
2023-05-23T06:08:14.086Z,17.99
2023-05-23T06:10:44.277Z,18.12
2023-05-23T06:13:14.209Z,18.22
2023-05-23T06:15:44.134Z,18.32
2023-05-23T06:18:13.336Z,18.52
2023-05-23T06:20:43.271Z,18.63
2023-05-23T06:23:12.640Z,18.72
2023-05-23T06:25:41.709Z,18.84
2023-05-23T06:28:10.882Z,18.98
2023-05-23T06:30:41.703Z,19.11
2023-05-23T06:33:12.661Z,19.20
2023-05-23T06:35:42.003Z,19.38
2023-05-23T06:38:10.944Z,19.49
2023-05-23T06:40:40.160Z,19.61
2023-05-23T06:43:09.374Z,19.84
2023-05-23T06:45:38.931Z,20.12
2023-05-23T06:48:08.295Z,20.21
2023-05-23T06:50:37.806Z,20.35
2023-05-23T06:53:07.011Z,20.46
2023-05-23T06:55:36.686Z,20.59
2023-05-23T06:58:05.834Z,20.80
2023-05-23T07:00:35.737Z,20.94
2023-05-23T07:03:05.660Z,21.09
2023-05-23T07:05:35.645Z,21.22
2023-05-23T07:08:05.415Z,21.28
2023-05-23T07:10:35.995Z,21.51
2023-05-23T07:13:05.622Z,21.85
2023-05-23T07:15:35.093Z,22.25
2023-05-23T07:18:05.000Z,22.71
2023-05-23T07:20:35.177Z,23.13
2023-05-23T07:23:04.705Z,23.54
2023-05-23T07:25:34.518Z,23.92
2023-05-23T07:28:03.686Z,24.26
2023-05-23T07:30:33.557Z,24.76
2023-05-23T07:33:04.190Z,25.19
2023-05-23T07:35:33.592Z,25.58
2023-05-23T07:38:02.795Z,25.99
2023-05-23T07:40:32.130Z,26.38
2023-05-23T07:43:01.485Z,26.74
2023-05-23T07:45:33.591Z,27.07
2023-05-23T07:48:03.544Z,27.08
2023-05-23T07:50:33.630Z,27.15
2023-05-23T07:53:04.445Z,27.27
2023-05-23T07:55:34.781Z,27.53
2023-05-23T07:58:03.915Z,27.84
2023-05-23T08:00:33.583Z,28.10
2023-05-23T08:03:03.285Z,28.48
2023-05-23T08:05:33.107Z,28.99
2023-05-23T08:08:04.218Z,29.12
2023-05-23T08:10:35.014Z,29.36
2023-05-23T08:13:11.182Z,29.51
2023-05-23T08:15:40.764Z,29.75
2023-05-23T08:18:12.007Z,30.06
2023-05-23T08:20:43.853Z,30.42
2023-05-23T08:23:13.766Z,30.65
2023-05-23T08:25:43.581Z,30.99
2023-05-23T08:28:12.721Z,31.28
2023-05-23T08:30:43.641Z,31.62
2023-05-23T08:33:13.605Z,31.82
2023-05-23T08:35:42.895Z,32.06
2023-05-23T08:38:12.001Z,32.43
2023-05-23T08:40:46.032Z,32.81
2023-05-23T08:43:15.064Z,33.00
2023-05-23T08:45:45.550Z,32.99
2023-05-23T08:48:16.875Z,33.18
2023-05-23T08:50:48.182Z,33.28
2023-05-23T08:53:22.040Z,33.60
2023-05-23T08:55:52.599Z,33.88
2023-05-23T08:58:24.434Z,34.16
2023-05-23T09:00:54.842Z,34.41
2023-05-23T09:03:24.186Z,34.72
2023-05-23T09:05:55.339Z,34.97
2023-05-23T09:08:26.832Z,35.12
2023-05-23T09:10:56.924Z,35.04
2023-05-23T09:13:26.638Z,35.25
2023-05-23T09:16:03.686Z,35.31
2023-05-23T09:18:43.756Z,35.06
2023-05-23T09:21:14.189Z,35.20
2023-05-23T09:23:44.467Z,35.49
2023-05-23T09:26:14.576Z,35.76
2023-05-23T09:28:45.823Z,35.98
2023-05-23T09:31:15.373Z,36.16
2023-05-23T09:33:51.353Z,36.36
2023-05-23T09:36:20.939Z,36.55
2023-05-23T09:38:50.015Z,36.71
2023-05-23T09:41:22.021Z,36.55
2023-05-23T09:43:55.792Z,36.64
2023-05-23T09:46:32.818Z,36.78
2023-05-23T09:49:02.072Z,36.87
2023-05-23T09:51:31.864Z,37.07
2023-05-23T09:54:00.862Z,37.08
2023-05-23T09:56:31.566Z,37.26
2023-05-23T09:59:02.515Z,37.52
2023-05-23T10:01:33.637Z,37.66
2023-05-23T10:04:05.916Z,37.72
2023-05-23T10:06:54.975Z,37.83
2023-05-23T10:09:28.167Z,37.85
2023-05-23T10:12:35.942Z,38.01
2023-05-23T10:15:08.044Z,37.87
2023-05-23T10:17:53.652Z,38.08
2023-05-23T10:20:26.688Z,38.20
2023-05-23T10:22:57.548Z,38.61
2023-05-23T10:25:27.592Z,39.07
2023-05-23T10:28:04.340Z,39.29
2023-05-23T10:30:36.177Z,39.48
2023-05-23T10:33:07.664Z,39.55
2023-05-23T10:35:57.496Z,39.58
2023-05-23T10:38:42.076Z,39.84
2023-05-23T10:41:23.584Z,39.89
2023-05-23T10:44:01.886Z,39.87
2023-05-23T10:47:04.789Z,39.65
2023-05-23T10:49:45.798Z,39.52
2023-05-23T10:52:18.236Z,39.69
2023-05-23T10:54:47.865Z,39.74
2023-05-23T10:57:19.761Z,39.70
2023-05-23T10:59:52.983Z,39.84
2023-05-23T11:02:30.365Z,39.73
2023-05-23T11:05:23.890Z,39.65
2023-05-23T11:08:18.268Z,39.49
2023-05-23T11:10:53.589Z,39.49
2023-05-23T11:13:24.195Z,39.62
2023-05-23T11:15:54.418Z,39.26
2023-05-23T11:18:28.257Z,39.02
2023-05-23T11:21:02.072Z,39.29
2023-05-23T11:23:44.651Z,39.42
2023-05-23T11:26:33.807Z,39.64
2023-05-23T11:29:04.676Z,39.47
2023-05-23T11:31:41.343Z,39.48
2023-05-23T11:34:10.551Z,39.84
2023-05-23T11:36:41.414Z,39.94
2023-05-23T11:39:11.713Z,40.00
2023-05-23T11:41:44.697Z,40.19
2023-05-23T11:44:15.312Z,40.47
2023-05-23T11:47:00.405Z,40.57
2023-05-23T11:49:35.324Z,40.74
2023-05-23T11:52:07.287Z,40.62
2023-05-23T11:54:37.061Z,40.67
2023-05-23T11:57:08.843Z,40.82
2023-05-23T11:59:39.610Z,40.82
2023-05-23T12:02:10.919Z,40.98
2023-05-23T12:04:40.405Z,41.21
2023-05-23T12:07:10.488Z,41.32
2023-05-23T12:09:44.472Z,41.26
2023-05-23T12:12:14.645Z,41.22
2023-05-23T12:14:47.461Z,40.69
2023-05-23T12:17:18.669Z,40.60
2023-05-23T12:19:49.068Z,40.89
2023-05-23T12:22:25.313Z,41.03
2023-05-23T12:24:56.402Z,40.85
2023-05-23T12:27:38.018Z,40.67
2023-05-23T12:30:18.366Z,40.72
2023-05-23T12:32:48.401Z,41.00
2023-05-23T12:35:17.977Z,41.15
2023-05-23T12:37:47.706Z,41.27
2023-05-23T12:40:18.694Z,41.45
2023-05-23T12:42:55.337Z,41.12
2023-05-23T12:45:35.342Z,40.94
2023-05-23T12:48:05.399Z,41.06
2023-05-23T12:50:35.114Z,40.92
2023-05-23T12:53:04.367Z,40.79
2023-05-23T12:55:33.883Z,40.53
2023-05-23T12:58:03.522Z,39.95
2023-05-23T13:00:33.264Z,39.50
2023-05-23T13:03:04.208Z,39.56
2023-05-23T13:05:35.042Z,39.94
2023-05-23T13:08:05.370Z,40.25
2023-05-23T13:10:35.563Z,40.47
2023-05-23T13:13:08.656Z,40.47
2023-05-23T13:15:38.916Z,40.33
2023-05-23T13:18:08.682Z,40.08
2023-05-23T13:20:38.166Z,39.94
2023-05-23T13:23:11.082Z,40.19
2023-05-23T13:25:40.771Z,40.26
2023-05-23T13:28:10.530Z,40.43
2023-05-23T13:30:40.295Z,40.73
2023-05-23T13:33:10.453Z,40.49
2023-05-23T13:35:40.640Z,40.07
2023-05-23T13:38:10.542Z,39.72
2023-05-23T13:40:39.931Z,39.77
2023-05-23T13:43:09.518Z,39.90
2023-05-23T13:45:39.541Z,39.34
2023-05-23T13:48:09.538Z,38.77
2023-05-23T13:50:38.440Z,38.49
2023-05-23T13:53:15.123Z,37.93
2023-05-23T13:55:45.676Z,37.71
2023-05-23T13:58:15.669Z,37.35
2023-05-23T14:00:45.166Z,37.06
2023-05-23T14:03:16.012Z,36.78
2023-05-23T14:05:45.129Z,36.46
2023-05-23T14:08:15.030Z,36.12
2023-05-23T14:10:44.443Z,35.82
2023-05-23T14:13:14.039Z,35.53
2023-05-23T14:15:44.279Z,35.28
2023-05-23T14:18:13.628Z,35.00
2023-05-23T14:20:43.096Z,34.39
2023-05-23T14:23:13.388Z,33.73
2023-05-23T14:25:43.297Z,33.37
2023-05-23T14:28:13.968Z,32.80
2023-05-23T14:30:43.360Z,32.33
2023-05-23T14:33:13.525Z,31.91
2023-05-23T14:35:44.370Z,31.69
2023-05-23T14:38:13.776Z,31.45
2023-05-23T14:40:44.157Z,31.13
2023-05-23T14:43:14.233Z,30.74
2023-05-23T14:45:44.186Z,30.55
2023-05-23T14:48:14.427Z,30.30
2023-05-23T14:50:44.142Z,30.08
2023-05-23T14:53:13.973Z,29.93
2023-05-23T14:55:43.809Z,29.60
2023-05-23T14:58:13.324Z,29.01
2023-05-23T15:00:43.553Z,28.05
2023-05-23T15:03:13.380Z,27.20
2023-05-23T15:05:45.161Z,26.45
2023-05-23T15:08:18.937Z,26.01
2023-05-23T15:10:48.722Z,25.40
2023-05-23T15:13:18.837Z,24.78
2023-05-23T15:15:49.459Z,24.12
2023-05-23T15:18:31.706Z,23.68
2023-05-23T15:21:05.835Z,23.13
2023-05-23T15:23:34.920Z,22.82
2023-05-23T15:26:05.129Z,22.50
2023-05-23T15:28:35.182Z,22.39
2023-05-23T15:31:04.688Z,22.22
2023-05-23T15:33:34.288Z,22.16
2023-05-23T15:36:05.512Z,22.10
2023-05-23T15:38:35.337Z,21.90
2023-05-23T15:41:06.883Z,21.69
2023-05-23T15:43:36.730Z,21.69
2023-05-23T15:46:06.888Z,21.55
2023-05-23T15:48:36.884Z,21.47
2023-05-23T15:51:06.426Z,21.35
2023-05-23T15:53:47.969Z,21.25
2023-05-23T15:56:26.509Z,20.90
2023-05-23T15:58:57.050Z,20.72
2023-05-23T16:01:26.769Z,20.62
2023-05-23T16:03:56.868Z,20.67
2023-05-23T16:06:28.911Z,20.70
2023-05-23T16:08:59.153Z,20.76
2023-05-23T16:11:31.151Z,20.73
2023-05-23T16:14:01.203Z,20.77
2023-05-23T16:16:30.597Z,20.81
2023-05-23T16:19:00.468Z,20.95
2023-05-23T16:21:30.495Z,21.10
2023-05-23T16:24:00.168Z,21.33
2023-05-23T16:26:30.137Z,21.60
2023-05-23T16:29:00.022Z,21.83
2023-05-23T16:31:31.698Z,22.01
2023-05-23T16:34:01.475Z,22.11
2023-05-23T16:36:33.395Z,22.26
2023-05-23T16:39:03.071Z,22.43
2023-05-23T16:41:33.252Z,22.52
2023-05-23T16:44:03.112Z,22.52
2023-05-23T16:46:32.596Z,22.45
2023-05-23T16:49:02.736Z,22.38
2023-05-23T16:51:33.298Z,22.32
2023-05-23T16:54:02.849Z,22.38
2023-05-23T16:56:32.378Z,22.45
2023-05-23T16:59:02.373Z,22.49
2023-05-23T17:01:34.059Z,22.47
2023-05-23T17:04:05.879Z,22.49
2023-05-23T17:06:35.185Z,22.53
2023-05-23T17:09:05.252Z,22.59
2023-05-23T17:11:36.339Z,22.65
2023-05-23T17:14:07.269Z,22.67
2023-05-23T17:16:37.179Z,22.70
2023-05-23T17:19:08.159Z,22.71
2023-05-23T17:21:38.332Z,22.73
2023-05-23T17:24:07.954Z,22.63
2023-05-23T17:26:38.009Z,22.49
2023-05-23T17:29:07.581Z,22.44
2023-05-23T17:31:37.750Z,22.46
2023-05-23T17:34:08.226Z,22.42
2023-05-23T17:36:37.812Z,22.20
2023-05-23T17:39:08.134Z,22.10
2023-05-23T17:41:38.561Z,22.07
2023-05-23T17:44:08.303Z,22.10
2023-05-23T17:46:38.349Z,22.11
2023-05-23T17:49:08.317Z,22.12
2023-05-23T17:51:37.618Z,22.12
2023-05-23T17:54:06.901Z,22.10
2023-05-23T17:56:36.527Z,22.03
2023-05-23T17:59:07.500Z,21.88
2023-05-23T18:01:36.934Z,21.70
2023-05-23T18:04:07.040Z,21.55
2023-05-23T18:06:36.784Z,21.47
2023-05-23T18:09:07.305Z,21.43
2023-05-23T18:11:38.027Z,21.37
2023-05-23T18:14:08.654Z,21.34
2023-05-23T18:16:38.879Z,21.36
2023-05-23T18:19:08.226Z,21.43
2023-05-23T18:21:37.593Z,21.37
2023-05-23T18:24:09.481Z,21.22
2023-05-23T18:26:44.012Z,21.17
2023-05-23T18:29:13.227Z,21.16
2023-05-23T18:31:42.910Z,21.19
2023-05-23T18:34:12.650Z,21.23
2023-05-23T18:36:42.360Z,21.30
2023-05-23T18:39:12.111Z,21.36
2023-05-23T18:41:42.308Z,21.42
2023-05-23T18:44:11.740Z,21.38
2023-05-23T18:46:42.409Z,21.33
2023-05-23T18:49:12.529Z,21.27
2023-05-23T18:51:42.915Z,21.24
2023-05-23T18:54:12.625Z,21.26
2023-05-23T18:56:42.606Z,21.22
2023-05-23T18:59:15.061Z,21.14
2023-05-23T19:01:46.362Z,21.10
2023-05-23T19:04:16.400Z,21.10
2023-05-23T19:06:46.465Z,21.05
2023-05-23T19:09:16.249Z,21.01
2023-05-23T19:11:47.693Z,20.95
2023-05-23T19:14:17.352Z,20.96
2023-05-23T19:16:48.893Z,20.94
2023-05-23T19:19:21.038Z,20.83
2023-05-23T19:21:59.171Z,20.80
2023-05-23T19:24:31.173Z,20.78
2023-05-23T19:27:03.342Z,20.70
2023-05-23T19:29:34.337Z,20.50
2023-05-23T19:32:05.638Z,20.37
2023-05-23T19:34:37.000Z,20.25
2023-05-23T19:37:07.516Z,20.26
2023-05-23T19:39:39.517Z,20.17
2023-05-23T19:42:11.019Z,19.94
2023-05-23T19:44:41.819Z,19.90
2023-05-23T19:47:12.722Z,19.90
2023-05-23T19:49:44.439Z,19.91
2023-05-23T19:52:15.785Z,19.95
2023-05-23T19:54:45.810Z,19.95
2023-05-23T19:57:16.096Z,19.97
2023-05-23T19:59:47.414Z,19.92
2023-05-23T20:02:19.596Z,19.86
2023-05-23T20:04:49.463Z,19.74
2023-05-23T20:07:20.744Z,19.66
2023-05-23T20:09:51.183Z,19.58
2023-05-23T20:12:21.109Z,19.45
2023-05-23T20:14:54.223Z,19.37
2023-05-23T20:17:27.060Z,19.32
2023-05-23T20:19:58.895Z,19.31
2023-05-23T20:22:30.201Z,19.27
2023-05-23T20:25:01.841Z,19.19
2023-05-23T20:27:33.248Z,19.12
2023-05-23T20:30:04.773Z,19.13
2023-05-23T20:32:35.260Z,19.06
2023-05-23T20:35:05.355Z,18.95
2023-05-23T20:37:35.397Z,18.89
2023-05-23T20:40:08.182Z,18.93
2023-05-23T20:42:38.522Z,18.93
2023-05-23T20:45:10.113Z,18.90
2023-05-23T20:47:42.492Z,18.88
2023-05-23T20:50:13.385Z,18.88
2023-05-23T20:52:44.030Z,18.88
2023-05-23T20:55:14.853Z,18.81
2023-05-23T20:57:44.893Z,18.75
2023-05-23T21:00:16.395Z,18.73
2023-05-23T21:02:46.349Z,18.69
2023-05-23T21:05:17.145Z,18.56
2023-05-23T21:07:47.848Z,18.48
2023-05-23T21:10:18.035Z,18.53
2023-05-23T21:12:50.978Z,18.63
2023-05-23T21:15:21.174Z,18.69
2023-05-23T21:17:54.499Z,18.70
2023-05-23T21:20:24.352Z,18.70
2023-05-23T21:22:54.609Z,18.77
2023-05-23T21:25:25.078Z,18.88
2023-05-23T21:27:54.469Z,18.88
2023-05-23T21:30:25.119Z,18.77
2023-05-23T21:32:56.608Z,18.72
2023-05-23T21:35:26.569Z,18.77
2023-05-23T21:37:56.433Z,18.78
2023-05-23T21:40:27.746Z,18.76
2023-05-23T21:42:57.713Z,18.81
2023-05-23T21:45:27.080Z,18.89
2023-05-23T21:47:57.525Z,18.96
2023-05-23T21:50:27.029Z,18.96
2023-05-23T21:52:57.002Z,18.91
2023-05-23T21:55:27.603Z,18.81
2023-05-23T21:57:57.183Z,18.79
2023-05-23T22:00:27.781Z,18.67
2023-05-23T22:02:57.738Z,18.50
2023-05-23T22:05:27.404Z,18.43
2023-05-23T22:07:57.467Z,18.38
2023-05-23T22:10:27.246Z,18.27
2023-05-23T22:12:56.908Z,18.17
2023-05-23T22:15:26.509Z,18.06
2023-05-23T22:17:57.163Z,17.95
2023-05-23T22:20:26.740Z,17.93
2023-05-23T22:22:57.276Z,17.96
2023-05-23T22:25:27.954Z,17.93
2023-05-23T22:27:57.378Z,17.80
2023-05-23T22:30:26.626Z,17.71
2023-05-23T22:32:58.652Z,17.60
2023-05-23T22:35:29.375Z,17.61
2023-05-23T22:37:58.611Z,17.59
2023-05-23T22:40:28.281Z,17.51
2023-05-23T22:42:57.528Z,17.47
2023-05-23T22:45:29.536Z,17.47
2023-05-23T22:48:01.297Z,17.42
2023-05-23T22:50:30.567Z,17.38
2023-05-23T22:53:02.491Z,17.41
2023-05-23T22:55:32.186Z,17.41
2023-05-23T22:58:02.309Z,17.35
2023-05-23T23:00:31.343Z,17.34
2023-05-23T23:03:00.667Z,17.25
2023-05-23T23:05:29.895Z,17.09
2023-05-23T23:07:59.861Z,16.94
2023-05-23T23:10:29.665Z,16.82
2023-05-23T23:12:59.348Z,16.77
2023-05-23T23:15:30.795Z,16.82
2023-05-23T23:18:00.677Z,16.79
2023-05-23T23:20:29.734Z,16.66
2023-05-23T23:22:59.146Z,16.62
2023-05-23T23:25:28.138Z,16.69
2023-05-23T23:27:57.096Z,16.75
2023-05-23T23:30:26.423Z,16.77
2023-05-23T23:32:55.667Z,16.80
2023-05-23T23:35:25.800Z,16.86
2023-05-23T23:37:54.776Z,16.87
2023-05-23T23:40:23.836Z,16.85
2023-05-23T23:42:52.880Z,16.78
2023-05-23T23:45:22.507Z,16.71
2023-05-23T23:47:51.836Z,16.65
2023-05-23T23:50:21.214Z,16.58
2023-05-23T23:52:50.557Z,16.53
2023-05-23T23:55:20.028Z,16.47
2023-05-23T23:57:49.225Z,16.38
